sensor_id;sensor_type;location;lat;lon;timestamp;pressure;altitude;pressure_sealevel;temperature;humidity
55311;BME280;41173;52.634;-8.666;2023-11-21T00:01:52;102342.38;;;11.80;100.00
55311;BME280;41173;52.634;-8.666;2023-11-21T00:04:17;102343.66;;;11.66;100.00
55311;BME280;41173;52.634;-8.666;2023-11-21T00:06:42;102343.19;;;11.79;100.00
55311;BME280;41173;52.634;-8.666;2023-11-21T00:09:12;102345.94;;;11.82;100.00
55311;BME280;41173;52.634;-8.666;2023-11-21T00:11:38;102352.25;;;11.88;100.00
55311;BME280;41173;52.634;-8.666;2023-11-21T00:14:03;102351.22;;;11.82;100.00
55311;BME280;41173;52.634;-8.666;2023-11-21T00:16:29;102356.59;;;11.85;100.00
55311;BME280;41173;52.634;-8.666;2023-11-21T00:18:54;102370.50;;;11.81;100.00
55311;BME280;41173;52.634;-8.666;2023-11-21T00:21:20;102363.34;;;11.77;100.00
55311;BME280;41173;52.634;-8.666;2023-11-21T00:23:45;102364.78;;;11.67;100.00
55311;BME280;41173;52.634;-8.666;2023-11-21T00:26:11;102366.28;;;11.86;100.00
55311;BME280;41173;52.634;-8.666;2023-11-21T00:28:36;102379.06;;;11.74;100.00
55311;BME280;41173;52.634;-8.666;2023-11-21T00:31:01;102385.94;;;11.69;100.00
55311;BME280;41173;52.634;-8.666;2023-11-21T00:33:27;102389.34;;;11.65;100.00
55311;BME280;41173;52.634;-8.666;2023-11-21T00:35:52;102393.00;;;11.43;100.00
55311;BME280;41173;52.634;-8.666;2023-11-21T00:38:18;102384.06;;;11.65;100.00
55311;BME280;41173;52.634;-8.666;2023-11-21T00:40:45;102387.88;;;11.22;100.00
55311;BME280;41173;52.634;-8.666;2023-11-21T00:43:10;102384.78;;;11.59;100.00
55311;BME280;41173;52.634;-8.666;2023-11-21T00:45:36;102385.53;;;11.57;100.00
55311;BME280;41173;52.634;-8.666;2023-11-21T00:48:02;102387.72;;;11.43;100.00
55311;BME280;41173;52.634;-8.666;2023-11-21T00:50:30;102391.53;;;11.51;100.00
55311;BME280;41173;52.634;-8.666;2023-11-21T00:52:55;102400.66;;;11.62;100.00
55311;BME280;41173;52.634;-8.666;2023-11-21T00:55:21;102406.94;;;11.66;100.00
55311;BME280;41173;52.634;-8.666;2023-11-21T00:57:46;102402.19;;;11.56;100.00
55311;BME280;41173;52.634;-8.666;2023-11-21T01:00:12;102422.28;;;11.51;100.00
55311;BME280;41173;52.634;-8.666;2023-11-21T01:02:45;102418.75;;;11.52;100.00
55311;BME280;41173;52.634;-8.666;2023-11-21T01:05:12;102419.72;;;11.54;100.00
55311;BME280;41173;52.634;-8.666;2023-11-21T01:07:37;102422.28;;;11.52;100.00
55311;BME280;41173;52.634;-8.666;2023-11-21T01:10:03;102414.81;;;11.64;100.00
55311;BME280;41173;52.634;-8.666;2023-11-21T01:12:34;102403.88;;;11.54;100.00
55311;BME280;41173;52.634;-8.666;2023-11-21T01:14:59;102397.38;;;11.42;100.00
55311;BME280;41173;52.634;-8.666;2023-11-21T01:17:26;102399.00;;;11.39;100.00
55311;BME280;41173;52.634;-8.666;2023-11-21T01:19:51;102400.69;;;11.37;100.00
55311;BME280;41173;52.634;-8.666;2023-11-21T01:22:17;102402.06;;;11.51;100.00
55311;BME280;41173;52.634;-8.666;2023-11-21T01:24:47;102408.50;;;11.59;100.00
55311;BME280;41173;52.634;-8.666;2023-11-21T01:27:13;102413.13;;;11.66;100.00
55311;BME280;41173;52.634;-8.666;2023-11-21T01:29:38;102416.34;;;11.58;100.00
55311;BME280;41173;52.634;-8.666;2023-11-21T01:32:04;102427.72;;;11.57;100.00
55311;BME280;41173;52.634;-8.666;2023-11-21T01:34:29;102420.47;;;11.50;100.00
55311;BME280;41173;52.634;-8.666;2023-11-21T01:36:55;102431.53;;;11.39;100.00
55311;BME280;41173;52.634;-8.666;2023-11-21T01:39:21;102435.44;;;11.51;100.00
55311;BME280;41173;52.634;-8.666;2023-11-21T01:41:50;102430.78;;;11.43;100.00
55311;BME280;41173;52.634;-8.666;2023-11-21T01:44:17;102431.53;;;11.39;100.00
55311;BME280;41173;52.634;-8.666;2023-11-21T01:46:45;102441.81;;;11.32;100.00
55311;BME280;41173;52.634;-8.666;2023-11-21T01:49:12;102433.84;;;11.30;100.00
55311;BME280;41173;52.634;-8.666;2023-11-21T01:51:38;102441.13;;;11.37;100.00
55311;BME280;41173;52.634;-8.666;2023-11-21T01:54:04;102446.28;;;11.34;100.00
55311;BME280;41173;52.634;-8.666;2023-11-21T01:56:30;102449.75;;;11.33;100.00
55311;BME280;41173;52.634;-8.666;2023-11-21T01:58:57;102444.97;;;11.21;100.00
55311;BME280;41173;52.634;-8.666;2023-11-21T02:01:22;102455.78;;;11.29;100.00
55311;BME280;41173;52.634;-8.666;2023-11-21T02:03:48;102450.81;;;11.13;100.00
55311;BME280;41173;52.634;-8.666;2023-11-21T02:06:13;102437.34;;;11.05;100.00
55311;BME280;41173;52.634;-8.666;2023-11-21T02:08:39;102446.13;;;11.05;100.00
55311;BME280;41173;52.634;-8.666;2023-11-21T02:11:05;102449.63;;;11.04;100.00
55311;BME280;41173;52.634;-8.666;2023-11-21T02:13:31;102442.94;;;10.90;100.00
55311;BME280;41173;52.634;-8.666;2023-11-21T02:15:58;102458.22;;;10.99;100.00
55311;BME280;41173;52.634;-8.666;2023-11-21T02:18:23;102458.97;;;10.96;100.00
55311;BME280;41173;52.634;-8.666;2023-11-21T02:20:49;102459.78;;;10.94;100.00
55311;BME280;41173;52.634;-8.666;2023-11-21T02:23:14;102448.94;;;10.86;100.00
55311;BME280;41173;52.634;-8.666;2023-11-21T02:25:40;102463.00;;;11.10;100.00
55311;BME280;41173;52.634;-8.666;2023-11-21T02:28:08;102470.88;;;10.85;100.00
55311;BME280;41173;52.634;-8.666;2023-11-21T02:30:33;102468.94;;;10.81;100.00
55311;BME280;41173;52.634;-8.666;2023-11-21T02:33:00;102471.16;;;10.93;100.00
55311;BME280;41173;52.634;-8.666;2023-11-21T02:35:26;102476.16;;;10.85;100.00
55311;BME280;41173;52.634;-8.666;2023-11-21T02:37:52;102470.75;;;10.82;100.00
55311;BME280;41173;52.634;-8.666;2023-11-21T02:40:17;102491.88;;;10.83;100.00
55311;BME280;41173;52.634;-8.666;2023-11-21T02:42:46;102487.66;;;10.64;100.00
55311;BME280;41173;52.634;-8.666;2023-11-21T02:45:16;102495.06;;;10.75;100.00
55311;BME280;41173;52.634;-8.666;2023-11-21T02:47:42;102488.94;;;10.76;100.00
55311;BME280;41173;52.634;-8.666;2023-11-21T02:50:08;102491.34;;;10.69;100.00
55311;BME280;41173;52.634;-8.666;2023-11-21T02:52:37;102500.22;;;10.71;100.00
55311;BME280;41173;52.634;-8.666;2023-11-21T02:55:03;102500.88;;;10.66;100.00
55311;BME280;41173;52.634;-8.666;2023-11-21T02:57:29;102500.81;;;10.64;100.00
55311;BME280;41173;52.634;-8.666;2023-11-21T02:59:54;102506.00;;;10.63;100.00
55311;BME280;41173;52.634;-8.666;2023-11-21T03:02:20;102509.41;;;10.60;100.00
55311;BME280;41173;52.634;-8.666;2023-11-21T03:04:46;102514.88;;;10.65;100.00
55311;BME280;41173;52.634;-8.666;2023-11-21T03:07:13;102518.31;;;10.64;100.00
55311;BME280;41173;52.634;-8.666;2023-11-21T03:09:38;102520.13;;;10.65;100.00
55311;BME280;41173;52.634;-8.666;2023-11-21T03:12:05;102522.88;;;10.68;100.00
55311;BME280;41173;52.634;-8.666;2023-11-21T03:14:30;102515.88;;;10.68;100.00
55311;BME280;41173;52.634;-8.666;2023-11-21T03:16:56;102512.34;;;10.68;100.00
55311;BME280;41173;52.634;-8.666;2023-11-21T03:19:21;102507.75;;;10.85;100.00
55311;BME280;41173;52.634;-8.666;2023-11-21T03:21:47;102515.19;;;11.21;100.00
55311;BME280;41173;52.634;-8.666;2023-11-21T03:24:12;102516.44;;;11.31;100.00
55311;BME280;41173;52.634;-8.666;2023-11-21T03:26:37;102513.19;;;11.38;100.00
55311;BME280;41173;52.634;-8.666;2023-11-21T03:29:03;102512.19;;;11.34;100.00
55311;BME280;41173;52.634;-8.666;2023-11-21T03:31:30;102516.50;;;11.32;100.00
55311;BME280;41173;52.634;-8.666;2023-11-21T03:33:55;102525.34;;;11.34;100.00
55311;BME280;41173;52.634;-8.666;2023-11-21T03:36:21;102512.63;;;11.22;100.00
55311;BME280;41173;52.634;-8.666;2023-11-21T03:38:47;102519.97;;;11.31;100.00
55311;BME280;41173;52.634;-8.666;2023-11-21T03:41:13;102537.91;;;11.17;100.00
55311;BME280;41173;52.634;-8.666;2023-11-21T03:43:39;102542.88;;;11.32;100.00
55311;BME280;41173;52.634;-8.666;2023-11-21T03:46:05;102540.44;;;11.14;100.00
55311;BME280;41173;52.634;-8.666;2023-11-21T03:48:31;102546.25;;;11.29;100.00
55311;BME280;41173;52.634;-8.666;2023-11-21T03:50:58;102539.47;;;11.12;100.00
55311;BME280;41173;52.634;-8.666;2023-11-21T03:53:23;102531.06;;;11.22;100.00
55311;BME280;41173;52.634;-8.666;2023-11-21T03:55:49;102537.41;;;11.03;100.00
55311;BME280;41173;52.634;-8.666;2023-11-21T03:58:15;102533.47;;;10.92;100.00
55311;BME280;41173;52.634;-8.666;2023-11-21T04:00:40;102545.16;;;10.99;100.00
55311;BME280;41173;52.634;-8.666;2023-11-21T04:03:06;102543.94;;;10.90;100.00
55311;BME280;41173;52.634;-8.666;2023-11-21T04:05:32;102548.00;;;11.29;100.00
55311;BME280;41173;52.634;-8.666;2023-11-21T04:07:57;102550.38;;;11.45;100.00
55311;BME280;41173;52.634;-8.666;2023-11-21T04:10:23;102555.66;;;11.45;100.00
55311;BME280;41173;52.634;-8.666;2023-11-21T04:12:48;102562.50;;;11.40;100.00
55311;BME280;41173;52.634;-8.666;2023-11-21T04:15:14;102560.94;;;11.45;100.00
55311;BME280;41173;52.634;-8.666;2023-11-21T04:17:40;102568.34;;;11.57;100.00
55311;BME280;41173;52.634;-8.666;2023-11-21T04:20:07;102561.06;;;11.50;100.00
55311;BME280;41173;52.634;-8.666;2023-11-21T04:22:36;102568.22;;;11.28;100.00
55311;BME280;41173;52.634;-8.666;2023-11-21T04:25:03;102572.00;;;11.37;100.00
55311;BME280;41173;52.634;-8.666;2023-11-21T04:27:29;102568.16;;;11.51;100.00
55311;BME280;41173;52.634;-8.666;2023-11-21T04:29:55;102562.19;;;11.33;100.00
55311;BME280;41173;52.634;-8.666;2023-11-21T04:32:20;102567.97;;;11.22;100.00
55311;BME280;41173;52.634;-8.666;2023-11-21T04:34:46;102574.91;;;11.20;100.00
55311;BME280;41173;52.634;-8.666;2023-11-21T04:37:11;102568.66;;;11.17;100.00
55311;BME280;41173;52.634;-8.666;2023-11-21T04:39:37;102573.84;;;11.15;100.00
55311;BME280;41173;52.634;-8.666;2023-11-21T04:42:02;102563.81;;;11.05;100.00
55311;BME280;41173;52.634;-8.666;2023-11-21T04:44:28;102572.84;;;11.12;100.00
55311;BME280;41173;52.634;-8.666;2023-11-21T04:46:54;102571.50;;;11.23;100.00
55311;BME280;41173;52.634;-8.666;2023-11-21T04:49:19;102576.63;;;11.42;100.00
55311;BME280;41173;52.634;-8.666;2023-11-21T04:51:44;102587.47;;;11.27;100.00
55311;BME280;41173;52.634;-8.666;2023-11-21T04:54:10;102588.94;;;11.19;100.00
55311;BME280;41173;52.634;-8.666;2023-11-21T04:56:35;102597.47;;;11.36;100.00
55311;BME280;41173;52.634;-8.666;2023-11-21T04:59:01;102596.28;;;11.28;100.00
55311;BME280;41173;52.634;-8.666;2023-11-21T05:01:26;102600.72;;;11.29;100.00
55311;BME280;41173;52.634;-8.666;2023-11-21T05:03:52;102592.53;;;11.21;100.00
55311;BME280;41173;52.634;-8.666;2023-11-21T05:06:17;102609.16;;;11.43;100.00
55311;BME280;41173;52.634;-8.666;2023-11-21T05:08:43;102618.56;;;11.60;100.00
55311;BME280;41173;52.634;-8.666;2023-11-21T05:11:08;102619.44;;;11.59;100.00
55311;BME280;41173;52.634;-8.666;2023-11-21T05:13:35;102621.50;;;11.68;100.00
55311;BME280;41173;52.634;-8.666;2023-11-21T05:16:01;102629.22;;;11.39;100.00
55311;BME280;41173;52.634;-8.666;2023-11-21T05:18:30;102621.81;;;11.29;100.00
55311;BME280;41173;52.634;-8.666;2023-11-21T05:20:56;102631.03;;;11.40;100.00
55311;BME280;41173;52.634;-8.666;2023-11-21T05:23:21;102619.00;;;11.48;100.00
55311;BME280;41173;52.634;-8.666;2023-11-21T05:25:47;102620.25;;;11.58;100.00
55311;BME280;41173;52.634;-8.666;2023-11-21T05:28:13;102618.41;;;11.32;100.00
55311;BME280;41173;52.634;-8.666;2023-11-21T05:30:38;102621.25;;;11.38;100.00
55311;BME280;41173;52.634;-8.666;2023-11-21T05:33:05;102620.50;;;11.40;100.00
55311;BME280;41173;52.634;-8.666;2023-11-21T05:35:30;102618.22;;;11.27;100.00
55311;BME280;41173;52.634;-8.666;2023-11-21T05:37:56;102615.34;;;11.21;100.00
55311;BME280;41173;52.634;-8.666;2023-11-21T05:40:21;102629.19;;;11.15;100.00
55311;BME280;41173;52.634;-8.666;2023-11-21T05:42:47;102629.59;;;11.03;100.00
55311;BME280;41173;52.634;-8.666;2023-11-21T05:45:13;102626.50;;;11.14;100.00
55311;BME280;41173;52.634;-8.666;2023-11-21T05:47:43;102625.66;;;11.15;100.00
55311;BME280;41173;52.634;-8.666;2023-11-21T05:50:13;102640.75;;;11.19;100.00
55311;BME280;41173;52.634;-8.666;2023-11-21T05:52:45;102626.84;;;11.23;100.00
55311;BME280;41173;52.634;-8.666;2023-11-21T05:55:11;102636.41;;;11.21;100.00
55311;BME280;41173;52.634;-8.666;2023-11-21T05:57:38;102631.88;;;11.17;100.00
55311;BME280;41173;52.634;-8.666;2023-11-21T06:00:04;102634.31;;;11.12;100.00
55311;BME280;41173;52.634;-8.666;2023-11-21T06:02:37;102638.38;;;11.02;100.00
55311;BME280;41173;52.634;-8.666;2023-11-21T06:05:03;102629.72;;;11.06;100.00
55311;BME280;41173;52.634;-8.666;2023-11-21T06:07:29;102624.19;;;10.78;100.00
55311;BME280;41173;52.634;-8.666;2023-11-21T06:09:55;102628.03;;;11.08;100.00
55311;BME280;41173;52.634;-8.666;2023-11-21T06:12:20;102621.00;;;11.07;100.00
55311;BME280;41173;52.634;-8.666;2023-11-21T06:14:45;102629.25;;;11.17;100.00
55311;BME280;41173;52.634;-8.666;2023-11-21T06:17:11;102620.53;;;11.18;100.00
55311;BME280;41173;52.634;-8.666;2023-11-21T06:19:36;102615.59;;;11.27;100.00
55311;BME280;41173;52.634;-8.666;2023-11-21T06:22:02;102616.44;;;11.03;100.00
55311;BME280;41173;52.634;-8.666;2023-11-21T06:24:27;102603.25;;;11.03;100.00
55311;BME280;41173;52.634;-8.666;2023-11-21T06:26:53;102608.41;;;11.00;100.00
55311;BME280;41173;52.634;-8.666;2023-11-21T06:29:18;102608.03;;;10.91;100.00
55311;BME280;41173;52.634;-8.666;2023-11-21T06:31:44;102606.63;;;10.99;100.00
55311;BME280;41173;52.634;-8.666;2023-11-21T06:34:09;102622.72;;;11.07;100.00
55311;BME280;41173;52.634;-8.666;2023-11-21T06:36:35;102618.94;;;11.00;100.00
55311;BME280;41173;52.634;-8.666;2023-11-21T06:39:01;102621.81;;;11.06;100.00
55311;BME280;41173;52.634;-8.666;2023-11-21T06:41:27;102623.16;;;11.18;100.00
55311;BME280;41173;52.634;-8.666;2023-11-21T06:43:52;102623.66;;;11.09;100.00
55311;BME280;41173;52.634;-8.666;2023-11-21T06:46:18;102618.47;;;11.10;100.00
55311;BME280;41173;52.634;-8.666;2023-11-21T06:48:45;102625.59;;;11.13;100.00
55311;BME280;41173;52.634;-8.666;2023-11-21T06:51:10;102630.88;;;11.13;100.00
55311;BME280;41173;52.634;-8.666;2023-11-21T06:53:37;102634.16;;;11.30;100.00
55311;BME280;41173;52.634;-8.666;2023-11-21T06:56:02;102635.47;;;11.19;100.00
55311;BME280;41173;52.634;-8.666;2023-11-21T06:58:28;102650.31;;;11.17;100.00
55311;BME280;41173;52.634;-8.666;2023-11-21T07:00:54;102644.91;;;11.36;100.00
55311;BME280;41173;52.634;-8.666;2023-11-21T07:03:19;102639.53;;;11.33;100.00
55311;BME280;41173;52.634;-8.666;2023-11-21T07:05:45;102651.53;;;11.25;100.00
55311;BME280;41173;52.634;-8.666;2023-11-21T07:08:10;102653.56;;;11.32;100.00
55311;BME280;41173;52.634;-8.666;2023-11-21T07:10:37;102654.25;;;11.28;100.00
55311;BME280;41173;52.634;-8.666;2023-11-21T07:13:03;102666.91;;;11.37;100.00
55311;BME280;41173;52.634;-8.666;2023-11-21T07:15:28;102670.94;;;11.27;100.00
55311;BME280;41173;52.634;-8.666;2023-11-21T07:17:54;102684.03;;;11.25;100.00
55311;BME280;41173;52.634;-8.666;2023-11-21T07:20:19;102684.31;;;11.32;100.00
55311;BME280;41173;52.634;-8.666;2023-11-21T07:22:45;102693.16;;;11.34;100.00
55311;BME280;41173;52.634;-8.666;2023-11-21T07:25:10;102688.28;;;11.44;100.00
55311;BME280;41173;52.634;-8.666;2023-11-21T07:27:37;102689.66;;;11.35;100.00
55311;BME280;41173;52.634;-8.666;2023-11-21T07:30:03;102695.47;;;11.48;100.00
55311;BME280;41173;52.634;-8.666;2023-11-21T07:32:31;102704.72;;;11.37;100.00
55311;BME280;41173;52.634;-8.666;2023-11-21T07:34:56;102712.84;;;11.43;100.00
55311;BME280;41173;52.634;-8.666;2023-11-21T07:37:24;102713.59;;;11.39;100.00
55311;BME280;41173;52.634;-8.666;2023-11-21T07:39:54;102715.88;;;11.30;100.00
55311;BME280;41173;52.634;-8.666;2023-11-21T07:42:24;102732.53;;;11.08;100.00
55311;BME280;41173;52.634;-8.666;2023-11-21T07:44:52;102723.66;;;11.27;100.00
55311;BME280;41173;52.634;-8.666;2023-11-21T07:47:17;102729.59;;;11.44;100.00
55311;BME280;41173;52.634;-8.666;2023-11-21T07:49:42;102723.41;;;11.43;100.00
55311;BME280;41173;52.634;-8.666;2023-11-21T07:52:09;102728.09;;;11.51;100.00
55311;BME280;41173;52.634;-8.666;2023-11-21T07:54:35;102722.38;;;11.62;100.00
55311;BME280;41173;52.634;-8.666;2023-11-21T07:57:01;102725.47;;;11.52;100.00
55311;BME280;41173;52.634;-8.666;2023-11-21T07:59:26;102721.47;;;11.62;100.00
55311;BME280;41173;52.634;-8.666;2023-11-21T08:01:51;102723.84;;;11.54;100.00
55311;BME280;41173;52.634;-8.666;2023-11-21T08:04:17;102728.66;;;11.43;100.00
55311;BME280;41173;52.634;-8.666;2023-11-21T08:06:43;102732.69;;;11.56;100.00
55311;BME280;41173;52.634;-8.666;2023-11-21T08:09:09;102721.69;;;11.44;100.00
55311;BME280;41173;52.634;-8.666;2023-11-21T08:11:35;102726.63;;;11.36;100.00
55311;BME280;41173;52.634;-8.666;2023-11-21T08:14:00;102718.84;;;11.39;100.00
55311;BME280;41173;52.634;-8.666;2023-11-21T08:16:26;102730.16;;;11.37;100.00
55311;BME280;41173;52.634;-8.666;2023-11-21T08:18:52;102733.13;;;11.44;100.00
55311;BME280;41173;52.634;-8.666;2023-11-21T08:21:17;102734.13;;;11.48;100.00
55311;BME280;41173;52.634;-8.666;2023-11-21T08:23:44;102746.16;;;11.41;100.00
55311;BME280;41173;52.634;-8.666;2023-11-21T08:26:09;102745.88;;;11.34;100.00
55311;BME280;41173;52.634;-8.666;2023-11-21T08:28:35;102741.44;;;11.33;100.00
55311;BME280;41173;52.634;-8.666;2023-11-21T08:31:01;102744.06;;;11.33;100.00
55311;BME280;41173;52.634;-8.666;2023-11-21T08:33:26;102740.06;;;11.42;100.00
55311;BME280;41173;52.634;-8.666;2023-11-21T08:35:51;102743.78;;;11.47;100.00
55311;BME280;41173;52.634;-8.666;2023-11-21T08:38:17;102755.16;;;11.46;100.00
55311;BME280;41173;52.634;-8.666;2023-11-21T08:40:43;102764.75;;;11.44;100.00
55311;BME280;41173;52.634;-8.666;2023-11-21T08:43:08;102764.03;;;11.48;100.00
55311;BME280;41173;52.634;-8.666;2023-11-21T08:45:34;102755.34;;;11.51;100.00
55311;BME280;41173;52.634;-8.666;2023-11-21T08:48:03;102751.81;;;11.51;100.00
55311;BME280;41173;52.634;-8.666;2023-11-21T08:50:28;102745.03;;;11.57;100.00
55311;BME280;41173;52.634;-8.666;2023-11-21T08:52:54;102748.59;;;11.58;100.00
55311;BME280;41173;52.634;-8.666;2023-11-21T08:55:20;102769.00;;;11.63;100.00
55311;BME280;41173;52.634;-8.666;2023-11-21T08:57:45;102765.22;;;11.57;100.00
55311;BME280;41173;52.634;-8.666;2023-11-21T09:00:13;102767.13;;;11.61;100.00
55311;BME280;41173;52.634;-8.666;2023-11-21T09:02:42;102782.25;;;11.65;100.00
55311;BME280;41173;52.634;-8.666;2023-11-21T09:05:08;102783.09;;;11.64;100.00
55311;BME280;41173;52.634;-8.666;2023-11-21T09:07:35;102785.78;;;11.65;100.00
55311;BME280;41173;52.634;-8.666;2023-11-21T09:10:01;102788.47;;;11.67;100.00
55311;BME280;41173;52.634;-8.666;2023-11-21T09:12:26;102804.44;;;11.70;100.00
55311;BME280;41173;52.634;-8.666;2023-11-21T09:14:52;102800.00;;;11.69;100.00
55311;BME280;41173;52.634;-8.666;2023-11-21T09:17:17;102803.91;;;11.79;100.00
55311;BME280;41173;52.634;-8.666;2023-11-21T09:19:42;102802.06;;;11.55;100.00
55311;BME280;41173;52.634;-8.666;2023-11-21T09:22:15;102792.19;;;11.72;100.00
55311;BME280;41173;52.634;-8.666;2023-11-21T09:24:41;102787.94;;;11.76;100.00
55311;BME280;41173;52.634;-8.666;2023-11-21T09:27:07;102782.06;;;11.83;100.00
55311;BME280;41173;52.634;-8.666;2023-11-21T09:29:33;102792.81;;;11.65;100.00
55311;BME280;41173;52.634;-8.666;2023-11-21T09:31:58;102792.63;;;11.60;100.00
55311;BME280;41173;52.634;-8.666;2023-11-21T09:34:26;102792.19;;;11.72;100.00
55311;BME280;41173;52.634;-8.666;2023-11-21T09:36:52;102784.16;;;11.69;100.00
55311;BME280;41173;52.634;-8.666;2023-11-21T09:39:18;102801.88;;;11.72;100.00
55311;BME280;41173;52.634;-8.666;2023-11-21T09:41:49;102805.19;;;11.67;100.00
55311;BME280;41173;52.634;-8.666;2023-11-21T09:44:18;102817.75;;;11.73;100.00
55311;BME280;41173;52.634;-8.666;2023-11-21T09:46:48;102810.00;;;11.78;100.00
55311;BME280;41173;52.634;-8.666;2023-11-21T09:49:18;102804.84;;;11.81;100.00
55311;BME280;41173;52.634;-8.666;2023-11-21T09:51:53;102807.34;;;11.78;100.00
55311;BME280;41173;52.634;-8.666;2023-11-21T09:54:20;102803.63;;;11.73;100.00
55311;BME280;41173;52.634;-8.666;2023-11-21T09:56:46;102795.78;;;11.74;100.00
55311;BME280;41173;52.634;-8.666;2023-11-21T09:59:14;102795.91;;;11.77;100.00
55311;BME280;41173;52.634;-8.666;2023-11-21T10:01:42;102785.78;;;11.88;100.00
55311;BME280;41173;52.634;-8.666;2023-11-21T10:04:07;102801.81;;;11.93;100.00
55311;BME280;41173;52.634;-8.666;2023-11-21T10:06:41;102799.19;;;11.93;100.00
55311;BME280;41173;52.634;-8.666;2023-11-21T10:09:09;102796.59;;;11.94;100.00
55311;BME280;41173;52.634;-8.666;2023-11-21T10:11:39;102797.44;;;11.93;100.00
55311;BME280;41173;52.634;-8.666;2023-11-21T10:14:08;102810.69;;;11.95;100.00
55311;BME280;41173;52.634;-8.666;2023-11-21T10:16:36;102803.91;;;11.79;100.00
55311;BME280;41173;52.634;-8.666;2023-11-21T10:19:03;102809.22;;;11.80;100.00
55311;BME280;41173;52.634;-8.666;2023-11-21T10:21:32;102819.19;;;11.88;100.00
55311;BME280;41173;52.634;-8.666;2023-11-21T10:23:58;102824.69;;;11.92;100.00
55311;BME280;41173;52.634;-8.666;2023-11-21T10:26:23;102828.34;;;11.96;100.00
55311;BME280;41173;52.634;-8.666;2023-11-21T10:29:01;102818.06;;;12.03;100.00
55311;BME280;41173;52.634;-8.666;2023-11-21T10:31:29;102817.44;;;12.11;100.00
55311;BME280;41173;52.634;-8.666;2023-11-21T10:34:11;102820.25;;;12.15;100.00
55311;BME280;41173;52.634;-8.666;2023-11-21T10:36:37;102817.28;;;12.06;100.00
55311;BME280;41173;52.634;-8.666;2023-11-21T10:39:02;102826.50;;;12.17;100.00
55311;BME280;41173;52.634;-8.666;2023-11-21T10:41:28;102826.81;;;12.25;100.00
55311;BME280;41173;52.634;-8.666;2023-11-21T10:43:53;102829.69;;;12.09;100.00
55311;BME280;41173;52.634;-8.666;2023-11-21T10:46:21;102839.44;;;12.34;100.00
55311;BME280;41173;52.634;-8.666;2023-11-21T10:48:52;102835.22;;;12.39;100.00
55311;BME280;41173;52.634;-8.666;2023-11-21T10:51:18;102827.31;;;12.39;100.00
55311;BME280;41173;52.634;-8.666;2023-11-21T10:53:45;102820.84;;;12.31;100.00
55311;BME280;41173;52.634;-8.666;2023-11-21T10:56:13;102826.44;;;12.40;100.00
55311;BME280;41173;52.634;-8.666;2023-11-21T10:58:43;102823.63;;;12.35;100.00
55311;BME280;41173;52.634;-8.666;2023-11-21T11:01:09;102835.44;;;12.45;100.00
55311;BME280;41173;52.634;-8.666;2023-11-21T11:03:37;102833.69;;;12.21;100.00
55311;BME280;41173;52.634;-8.666;2023-11-21T11:06:04;102842.22;;;12.38;100.00
55311;BME280;41173;52.634;-8.666;2023-11-21T11:08:34;102846.00;;;12.45;100.00
55311;BME280;41173;52.634;-8.666;2023-11-21T11:11:00;102841.41;;;12.39;100.00
55311;BME280;41173;52.634;-8.666;2023-11-21T11:13:26;102837.56;;;12.31;100.00
55311;BME280;41173;52.634;-8.666;2023-11-21T11:15:58;102822.88;;;12.38;100.00
55311;BME280;41173;52.634;-8.666;2023-11-21T11:18:25;102822.13;;;12.42;100.00
55311;BME280;41173;52.634;-8.666;2023-11-21T11:20:51;102832.91;;;12.48;100.00
55311;BME280;41173;52.634;-8.666;2023-11-21T11:23:34;102833.09;;;12.29;100.00
55311;BME280;41173;52.634;-8.666;2023-11-21T11:29:18;102830.47;;;12.54;100.00
55311;BME280;41173;52.634;-8.666;2023-11-21T11:35:10;102825.88;;;12.49;100.00
55311;BME280;41173;52.634;-8.666;2023-11-21T11:37:36;102822.97;;;12.41;100.00
55311;BME280;41173;52.634;-8.666;2023-11-21T11:40:06;102824.66;;;12.39;100.00
55311;BME280;41173;52.634;-8.666;2023-11-21T11:42:32;102828.03;;;12.59;100.00
55311;BME280;41173;52.634;-8.666;2023-11-21T11:44:57;102824.03;;;12.70;100.00
55311;BME280;41173;52.634;-8.666;2023-11-21T11:47:25;102823.75;;;12.63;100.00
55311;BME280;41173;52.634;-8.666;2023-11-21T11:50:04;102837.25;;;12.70;100.00
55311;BME280;41173;52.634;-8.666;2023-11-21T11:55:08;102836.78;;;12.82;100.00
55311;BME280;41173;52.634;-8.666;2023-11-21T11:57:35;102833.59;;;12.67;100.00
55311;BME280;41173;52.634;-8.666;2023-11-21T12:02:35;102831.69;;;12.88;100.00
55311;BME280;41173;52.634;-8.666;2023-11-21T12:05:13;102830.75;;;12.86;100.00
55311;BME280;41173;52.634;-8.666;2023-11-21T12:07:51;102837.66;;;12.83;100.00
55311;BME280;41173;52.634;-8.666;2023-11-21T12:10:31;102839.84;;;12.94;100.00
55311;BME280;41173;52.634;-8.666;2023-11-21T12:12:58;102829.34;;;12.97;100.00
55311;BME280;41173;52.634;-8.666;2023-11-21T12:15:25;102831.00;;;12.94;100.00
55311;BME280;41173;52.634;-8.666;2023-11-21T12:17:52;102830.34;;;13.01;100.00
55311;BME280;41173;52.634;-8.666;2023-11-21T12:20:23;102830.34;;;13.01;100.00
55311;BME280;41173;52.634;-8.666;2023-11-21T12:22:50;102831.00;;;12.94;100.00
55311;BME280;41173;52.634;-8.666;2023-11-21T12:25:17;102838.22;;;12.98;100.00
55311;BME280;41173;52.634;-8.666;2023-11-21T12:27:47;102839.00;;;12.95;100.00
55311;BME280;41173;52.634;-8.666;2023-11-21T12:30:16;102821.41;;;12.96;100.00
55311;BME280;41173;52.634;-8.666;2023-11-21T12:32:44;102829.63;;;13.05;100.00
55311;BME280;41173;52.634;-8.666;2023-11-21T12:35:11;102824.47;;;13.08;100.00
55311;BME280;41173;52.634;-8.666;2023-11-21T12:37:41;102823.72;;;13.12;100.00
55311;BME280;41173;52.634;-8.666;2023-11-21T12:40:10;102821.94;;;13.13;100.00